Calexico, California
Current Conditions -  °F | °C
As of 5:53 AM on Thursday 27 Nov 2014 (Local Time) from KIPL Reporting Station
Clear Clear  
Wind Chill: 47°   Ceiling: Unl
Heat Index: 47°   Visibility: 10mi
Dew Point: 28°   Wind: 3mph
Humidity: 48%   Direction: 260°W
Pressure: 30.15"   Gusts: NA
Location:  32.68°N, 115.49°W
Report Text: KIPL 271353Z AUTO 26003KT 10SM CLR 08/M02 A3015 RMK AO2 SLP209 T00831022
Loading
Personal Weather Stations






























Interactive Weather Map New forecast layout! Learn more

10-Day Weather Forecast

Advertisements
Track Severe Weather on mobile